createdAt,value
2018-05-13T00:00:36.087Z,79.30
2018-05-13T00:01:36.081Z,79.88
2018-05-13T00:02:36.092Z,80.26
2018-05-13T00:03:36.084Z,80.55
2018-05-13T00:04:36.079Z,81.12
2018-05-13T00:05:36.078Z,80.99
2018-05-13T00:06:36.081Z,81.18
2018-05-13T00:07:36.080Z,80.79
2018-05-13T00:08:36.080Z,81.75
2018-05-13T00:09:36.079Z,82.04
2018-05-13T00:10:36.074Z,82.04
2018-05-13T00:11:36.072Z,82.23
2018-05-13T00:12:36.073Z,82.23
2018-05-13T00:13:36.071Z,82.42
2018-05-13T00:14:36.077Z,82.62
2018-05-13T00:15:36.072Z,83.29
2018-05-13T00:16:36.073Z,82.90
2018-05-13T00:17:36.072Z,82.90
2018-05-13T00:18:36.065Z,82.81
2018-05-13T00:19:36.064Z,82.62
2018-05-13T00:20:36.069Z,83.09
2018-05-13T00:21:36.073Z,82.71
2018-05-13T00:22:36.065Z,83.09
2018-05-13T00:23:36.060Z,83.86
2018-05-13T00:24:36.058Z,83.53
2018-05-13T00:25:36.056Z,84.05
2018-05-13T00:26:36.059Z,84.30
2018-05-13T00:27:36.058Z,84.05
2018-05-13T00:28:36.057Z,83.72
2018-05-13T00:29:36.057Z,84.11
2018-05-13T00:30:36.055Z,83.72
2018-05-13T00:31:36.050Z,83.67
2018-05-13T00:32:36.052Z,84.34
2018-05-13T00:33:36.047Z,84.44
2018-05-13T00:34:36.049Z,84.34
2018-05-13T00:35:36.049Z,84.05
2018-05-13T00:36:36.042Z,84.30
2018-05-13T00:37:36.041Z,83.67
2018-05-13T00:38:36.048Z,83.86
2018-05-13T00:39:36.042Z,83.48
2018-05-13T00:40:36.042Z,83.19
2018-05-13T00:41:36.039Z,83.48
2018-05-13T00:42:36.034Z,83.67
2018-05-13T00:43:36.036Z,83.58
2018-05-13T00:44:36.031Z,83.67
2018-05-13T00:45:36.030Z,83.86
2018-05-13T00:46:36.032Z,83.29
2018-05-13T00:47:36.031Z,83.58
2018-05-13T00:48:36.031Z,83.00
2018-05-13T00:49:36.029Z,83.86
2018-05-13T00:50:36.049Z,83.09
2018-05-13T00:51:36.023Z,83.67
2018-05-13T00:52:36.025Z,83.19
2018-05-13T00:53:36.023Z,83.67
2018-05-13T00:54:36.016Z,83.67
2018-05-13T00:55:36.016Z,83.67
2018-05-13T00:56:36.013Z,83.29
2018-05-13T00:57:36.012Z,83.38
2018-05-13T00:58:36.014Z,83.29
2018-05-13T00:59:36.013Z,83.58
2018-05-13T01:00:36.012Z,83.48
2018-05-13T01:01:36.009Z,83.67
2018-05-13T01:02:36.003Z,83.38
2018-05-13T01:03:36.005Z,83.29
2018-05-13T01:04:36.011Z,83.95
2018-05-13T01:05:36.001Z,83.67
2018-05-13T01:06:36.004Z,84.63
2018-05-13T01:07:36.007Z,84.05
2018-05-13T01:08:35.995Z,84.63
2018-05-13T01:09:35.992Z,84.53
2018-05-13T01:10:35.999Z,84.63
2018-05-13T01:11:35.994Z,84.53
2018-05-13T01:12:35.992Z,84.34
2018-05-13T01:13:35.992Z,83.58
2018-05-13T01:14:35.984Z,84.05
2018-05-13T01:15:35.983Z,83.76
2018-05-13T01:16:35.983Z,83.67
2018-05-13T01:17:35.980Z,83.76
2018-05-13T01:18:35.996Z,84.15
2018-05-13T01:19:35.982Z,83.67
2018-05-13T01:20:35.980Z,83.67
2018-05-13T01:21:35.978Z,83.67
2018-05-13T01:22:35.972Z,83.76
2018-05-13T01:23:35.971Z,83.95
2018-05-13T01:24:35.975Z,84.44
2018-05-13T01:25:35.977Z,84.15
2018-05-13T01:26:35.969Z,84.44
2018-05-13T01:27:35.965Z,83.76
2018-05-13T01:28:35.964Z,83.95
2018-05-13T01:29:35.962Z,84.72
2018-05-13T01:30:35.965Z,84.44
2018-05-13T01:31:35.963Z,84.53
2018-05-13T01:32:35.963Z,84.68
2018-05-13T01:33:35.965Z,84.68
2018-05-13T01:34:35.970Z,84.88
2018-05-13T01:35:35.953Z,84.20
2018-05-13T01:36:35.951Z,84.20
2018-05-13T01:37:35.948Z,84.58
2018-05-13T01:38:35.952Z,84.49
2018-05-13T01:39:35.950Z,84.58
2018-05-13T01:40:35.945Z,84.49
2018-05-13T01:41:35.941Z,84.63
2018-05-13T01:42:35.948Z,84.63
2018-05-13T01:43:35.943Z,84.53
2018-05-13T01:44:35.942Z,84.53
2018-05-13T01:45:35.944Z,84.72
2018-05-13T01:46:35.933Z,84.25
2018-05-13T01:47:35.934Z,84.82
2018-05-13T01:48:35.931Z,84.34
2018-05-13T01:49:35.932Z,84.05
2018-05-13T01:50:35.933Z,83.76
2018-05-13T01:51:35.932Z,83.76
2018-05-13T01:52:35.932Z,83.38
2018-05-13T01:53:35.926Z,83.58
2018-05-13T01:54:35.924Z,83.67
2018-05-13T01:55:35.919Z,83.58
2018-05-13T01:56:35.922Z,83.58
2018-05-13T01:57:35.919Z,83.67
2018-05-13T01:58:35.914Z,83.38
2018-05-13T01:59:35.913Z,83.48
2018-05-13T02:00:35.914Z,83.00
2018-05-13T02:01:35.908Z,83.48
2018-05-13T02:02:35.912Z,83.86
2018-05-13T02:03:35.911Z,84.53
2018-05-13T02:04:35.910Z,84.44
2018-05-13T02:05:35.913Z,84.72
2018-05-13T02:06:35.900Z,84.34
2018-05-13T02:07:35.907Z,85.78
2018-05-13T02:08:35.897Z,85.49
2018-05-13T02:09:35.895Z,85.58
2018-05-13T02:10:35.898Z,85.39
2018-05-13T02:11:35.896Z,85.88
2018-05-13T02:12:35.891Z,85.78
2018-05-13T02:13:35.887Z,85.88
2018-05-13T02:14:35.892Z,85.97
2018-05-13T02:15:35.889Z,85.83
2018-05-13T02:16:35.888Z,85.54
2018-05-13T02:17:35.885Z,85.25
2018-05-13T02:18:35.879Z,85.45
2018-05-13T02:19:35.878Z,85.45
2018-05-13T02:20:35.880Z,85.54
2018-05-13T02:21:35.878Z,86.02
2018-05-13T02:22:35.872Z,85.93
2018-05-13T02:23:35.871Z,86.02
2018-05-13T02:24:35.869Z,85.93
2018-05-13T02:25:35.868Z,86.21
2018-05-13T02:26:35.870Z,86.31
2018-05-13T02:27:35.870Z,86.50
2018-05-13T02:28:35.866Z,86.41
2018-05-13T02:29:35.861Z,86.21
2018-05-13T02:30:35.864Z,85.21
2018-05-13T02:31:35.862Z,85.11
2018-05-13T02:32:35.860Z,84.25
2018-05-13T02:33:35.857Z,84.25
2018-05-13T02:34:35.851Z,83.95
2018-05-13T02:35:35.849Z,83.95
2018-05-13T02:36:35.849Z,83.76
2018-05-13T02:37:35.845Z,84.15
2018-05-13T02:38:35.848Z,84.53
2018-05-13T02:39:35.847Z,84.34
2018-05-13T02:40:35.846Z,83.76
2018-05-13T02:41:35.843Z,83.76
2018-05-13T02:42:35.838Z,84.53
2018-05-13T02:43:35.836Z,85.11
2018-05-13T02:44:35.838Z,85.58
2018-05-13T02:45:35.837Z,84.34
2018-05-13T02:46:35.830Z,84.44
2018-05-13T02:47:35.828Z,83.29
2018-05-13T02:48:35.829Z,82.90
2018-05-13T02:49:35.824Z,82.90
2018-05-13T02:50:35.830Z,81.85
2018-05-13T02:51:35.828Z,81.75
2018-05-13T02:52:35.824Z,82.23
2018-05-13T02:53:35.821Z,82.32
2018-05-13T02:54:35.815Z,82.75
2018-05-13T02:55:35.828Z,83.09
2018-05-13T02:56:35.812Z,83.19
2018-05-13T02:57:35.818Z,83.23
2018-05-13T02:58:35.813Z,83.81
2018-05-13T02:59:35.812Z,83.58
2018-05-13T03:00:35.806Z,83.23
2018-05-13T03:01:35.802Z,83.09
2018-05-13T03:02:35.806Z,83.61
2018-05-13T03:03:35.805Z,83.19
2018-05-13T03:04:35.802Z,83.58
2018-05-13T03:05:35.800Z,83.95
2018-05-13T03:06:35.797Z,84.05
2018-05-13T03:07:35.792Z,84.72
2018-05-13T03:08:35.790Z,84.82
2018-05-13T03:09:35.788Z,84.44
2018-05-13T03:10:35.792Z,84.63
2018-05-13T03:11:35.789Z,85.21
2018-05-13T03:12:35.794Z,85.97
2018-05-13T03:13:35.787Z,86.25
2018-05-13T03:14:35.779Z,86.12
2018-05-13T03:15:35.778Z,85.83
2018-05-13T03:16:35.782Z,85.83
2018-05-13T03:17:35.778Z,86.31
2018-05-13T03:18:35.772Z,86.21
2018-05-13T03:19:35.770Z,86.21
2018-05-13T03:20:35.767Z,86.12
2018-05-13T03:21:35.766Z,86.60
2018-05-13T03:22:35.769Z,87.08
2018-05-13T03:23:35.767Z,87.46
2018-05-13T03:24:35.766Z,87.55
2018-05-13T03:25:35.764Z,87.46
2018-05-13T03:26:35.757Z,87.84
2018-05-13T03:27:35.756Z,87.94
2018-05-13T03:28:35.754Z,88.80
2018-05-13T03:29:35.753Z,88.03
2018-05-13T03:30:35.754Z,87.37
2018-05-13T03:31:35.752Z,86.50
2018-05-13T03:32:35.746Z,86.41
2018-05-13T03:33:35.744Z,85.45
2018-05-13T03:34:35.747Z,85.39
2018-05-13T03:35:35.744Z,84.53
2018-05-13T03:36:35.743Z,84.53
2018-05-13T03:37:35.741Z,83.29
2018-05-13T03:38:35.738Z,83.76
2018-05-13T03:39:35.734Z,83.48
2018-05-13T03:40:35.731Z,83.19
2018-05-13T03:41:35.728Z,82.94
2018-05-13T03:42:35.732Z,82.75
2018-05-13T03:43:35.731Z,81.89
2018-05-13T03:44:35.727Z,81.12
2018-05-13T03:45:35.725Z,80.11
2018-05-13T03:46:35.719Z,80.68
2018-05-13T03:47:35.717Z,81.45
2018-05-13T03:48:35.720Z,81.07
2018-05-13T03:49:35.718Z,82.03
2018-05-13T03:50:35.712Z,82.21
2018-05-13T03:51:35.710Z,82.89
2018-05-13T03:52:35.711Z,82.89
2018-05-13T03:53:35.707Z,83.65
2018-05-13T03:54:35.711Z,84.04
2018-05-13T03:55:35.710Z,84.52
2018-05-13T03:56:35.709Z,85.28
2018-05-13T03:57:35.705Z,85.58
2018-05-13T03:58:35.700Z,85.19
2018-05-13T03:59:35.699Z,85.28
2018-05-13T04:00:35.697Z,85.38
2018-05-13T04:01:35.701Z,85.38
2018-05-13T04:02:35.698Z,85.10
2018-05-13T04:03:35.696Z,85.82
2018-05-13T04:04:35.691Z,87.35
2018-05-13T04:05:35.688Z,88.41
2018-05-13T04:06:35.691Z,87.93
2018-05-13T04:07:35.691Z,88.41
2018-05-13T04:08:35.688Z,88.12
2018-05-13T04:09:35.688Z,88.31
2018-05-13T04:10:35.680Z,88.41
2018-05-13T04:11:35.680Z,87.35
2018-05-13T04:12:35.678Z,88.02
2018-05-13T04:13:35.676Z,88.70
2018-05-13T04:14:35.680Z,89.18
2018-05-13T04:15:35.679Z,89.18
2018-05-13T04:16:35.677Z,89.65
2018-05-13T04:17:35.674Z,90.04
2018-05-13T04:18:35.668Z,89.47
2018-05-13T04:19:35.666Z,90.33
2018-05-13T04:20:35.670Z,90.42
2018-05-13T04:21:35.667Z,90.90
2018-05-13T04:22:35.661Z,90.71
2018-05-13T04:23:35.661Z,91.96
2018-05-13T04:24:35.662Z,91.28
2018-05-13T04:25:35.658Z,91.86
2018-05-13T04:26:35.662Z,91.38
2018-05-13T04:27:35.660Z,91.77
2018-05-13T04:28:35.657Z,91.77
2018-05-13T04:29:35.654Z,91.38
2018-05-13T04:30:35.649Z,91.67
2018-05-13T04:31:35.648Z,92.44
2018-05-13T04:32:35.647Z,91.77
2018-05-13T04:33:35.644Z,91.67
2018-05-13T04:34:35.651Z,92.34
2018-05-13T04:35:35.650Z,92.44
2018-05-13T04:36:35.640Z,92.63
2018-05-13T04:37:35.641Z,93.21
2018-05-13T04:38:35.641Z,94.35
2018-05-13T04:39:35.663Z,94.74
2018-05-13T04:40:35.638Z,95.51
2018-05-13T04:41:35.635Z,96.85
2018-05-13T04:42:35.630Z,97.18
2018-05-13T04:43:35.628Z,97.66
2018-05-13T04:44:35.627Z,97.85
2018-05-13T04:45:35.625Z,98.33
2018-05-13T04:46:35.632Z,98.72
2018-05-13T04:47:35.626Z,99.68
2018-05-13T04:48:35.625Z,99.99
2018-05-13T04:49:35.622Z,99.99
2018-05-13T04:50:35.614Z,99.99
2018-05-13T04:51:35.613Z,99.99
2018-05-13T04:52:35.616Z,99.99
2018-05-13T04:53:35.612Z,99.99
2018-05-13T04:54:35.605Z,99.99
2018-05-13T04:55:35.603Z,99.99
2018-05-13T04:56:35.601Z,99.99
2018-05-13T04:57:35.598Z,99.99
2018-05-13T04:58:35.600Z,99.99
2018-05-13T04:59:35.598Z,99.99
2018-05-13T05:00:35.597Z,99.99
2018-05-13T05:01:35.593Z,99.99
2018-05-13T05:02:35.587Z,99.99
2018-05-13T05:03:35.584Z,99.99
2018-05-13T05:04:35.582Z,99.99
2018-05-13T05:05:35.580Z,99.99
2018-05-13T05:06:35.585Z,99.99
2018-05-13T05:07:35.580Z,99.99
2018-05-13T05:08:35.574Z,99.99
2018-05-13T05:09:35.570Z,99.99
2018-05-13T05:10:35.574Z,99.99
2018-05-13T05:11:35.571Z,99.99
2018-05-13T05:12:35.569Z,99.99
2018-05-13T05:13:35.567Z,99.99
2018-05-13T05:14:35.559Z,99.99
2018-05-13T05:15:35.561Z,99.99
2018-05-13T05:16:35.556Z,99.99
2018-05-13T05:17:35.553Z,99.99
2018-05-13T05:18:35.555Z,99.99
2018-05-13T05:19:35.553Z,99.99
2018-05-13T05:20:35.552Z,99.99
2018-05-13T05:21:35.549Z,99.99
2018-05-13T05:22:35.547Z,99.99
2018-05-13T05:23:35.542Z,99.99
2018-05-13T05:24:35.544Z,99.99
2018-05-13T05:25:35.541Z,99.99
2018-05-13T05:26:35.536Z,99.99
2018-05-13T05:27:35.534Z,99.99
2018-05-13T05:28:35.532Z,99.99
2018-05-13T05:29:35.531Z,99.99
2018-05-13T05:30:35.532Z,99.99
2018-05-13T05:31:35.601Z,99.99
2018-05-13T05:32:35.531Z,99.99
2018-05-13T05:33:35.536Z,99.63
2018-05-13T05:34:35.522Z,98.77
2018-05-13T05:35:35.521Z,99.25
2018-05-13T05:36:35.521Z,99.63
2018-05-13T05:37:35.517Z,99.87
2018-05-13T05:38:35.521Z,99.01
2018-05-13T05:39:35.519Z,98.14
2018-05-13T05:40:35.513Z,98.72
2018-05-13T05:41:35.512Z,99.92
2018-05-13T05:42:35.515Z,99.92
2018-05-13T05:43:35.514Z,99.99
2018-05-13T05:44:35.514Z,99.99
2018-05-13T05:45:35.513Z,99.99
2018-05-13T05:46:35.511Z,99.99
2018-05-13T05:47:35.507Z,99.99
2018-05-13T05:48:35.506Z,99.99
2018-05-13T05:49:35.504Z,99.99
2018-05-13T05:50:35.510Z,99.99
2018-05-13T05:51:35.509Z,99.99
2018-05-13T05:52:35.509Z,99.99
2018-05-13T05:53:35.507Z,99.26
2018-05-13T05:54:35.503Z,97.42
2018-05-13T05:55:35.502Z,97.71
2018-05-13T05:56:35.508Z,97.38
2018-05-13T05:57:35.506Z,94.87
2018-05-13T05:58:35.501Z,93.91
2018-05-13T05:59:35.502Z,93.15
2018-05-13T06:00:35.503Z,92.18
2018-05-13T06:01:35.503Z,89.72
2018-05-13T06:02:35.509Z,87.21
2018-05-13T06:03:35.507Z,83.78
2018-05-13T06:04:35.509Z,83.25
2018-05-13T06:05:35.507Z,81.93
2018-05-13T06:06:35.505Z,80.39
2018-05-13T06:07:35.505Z,80.33
2018-05-13T06:08:35.510Z,80.62
2018-05-13T06:09:35.507Z,79.17
2018-05-13T06:10:35.513Z,77.92
2018-05-13T06:11:35.514Z,79.37
2018-05-13T06:12:35.512Z,81.11
2018-05-13T06:13:35.513Z,82.84
2018-05-13T06:14:35.520Z,83.91
2018-05-13T06:15:35.527Z,82.94
2018-05-13T06:16:35.526Z,83.23
2018-05-13T06:17:35.527Z,82.81
2018-05-13T06:18:35.525Z,81.65
2018-05-13T06:19:35.531Z,81.11
2018-05-13T06:20:35.531Z,79.85
2018-05-13T06:21:35.531Z,78.15
2018-05-13T06:22:35.537Z,77.42
2018-05-13T06:23:35.539Z,76.74
2018-05-13T06:24:35.541Z,77.22
2018-05-13T06:25:35.543Z,75.29
2018-05-13T06:26:35.541Z,74.17
2018-05-13T06:27:35.544Z,73.59
2018-05-13T06:28:35.551Z,72.56
2018-05-13T06:29:35.553Z,71.59
2018-05-13T06:30:35.552Z,72.21
2018-05-13T06:31:35.559Z,71.69
2018-05-13T06:32:35.560Z,71.50
2018-05-13T06:33:35.561Z,70.62
2018-05-13T06:34:35.570Z,72.17
2018-05-13T06:35:35.573Z,72.11
2018-05-13T06:36:35.576Z,72.15
2018-05-13T06:37:35.578Z,70.31
2018-05-13T06:38:35.661Z,70.01
2018-05-13T06:39:35.633Z,69.85
2018-05-13T06:40:35.586Z,68.79
2018-05-13T06:41:35.588Z,66.30
2018-05-13T06:42:35.596Z,65.95
2018-05-13T06:43:35.601Z,64.88
2018-05-13T06:44:35.600Z,64.53
2018-05-13T06:45:35.605Z,64.07
2018-05-13T06:46:35.612Z,64.43
2018-05-13T06:47:35.618Z,63.42
2018-05-13T06:48:35.625Z,62.10
2018-05-13T06:49:35.626Z,62.32
2018-05-13T06:50:35.628Z,61.74
2018-05-13T06:51:35.634Z,60.74
2018-05-13T06:52:35.639Z,60.09
2018-05-13T06:53:35.642Z,61.25
2018-05-13T06:54:35.654Z,61.71
2018-05-13T06:55:35.664Z,62.16
2018-05-13T06:56:35.663Z,63.30
2018-05-13T06:57:35.670Z,64.69
2018-05-13T06:58:35.674Z,65.17
2018-05-13T06:59:35.676Z,64.85
2018-05-13T07:00:35.685Z,62.62
2018-05-13T07:01:35.690Z,62.81
2018-05-13T07:02:35.771Z,62.68
2018-05-13T07:03:35.697Z,60.57
2018-05-13T07:04:35.703Z,59.33
2018-05-13T07:05:35.709Z,58.95
2018-05-13T07:06:35.720Z,57.51
2018-05-13T07:07:35.726Z,57.35
2018-05-13T07:08:35.732Z,56.23
2018-05-13T07:09:35.736Z,54.80
2018-05-13T07:10:35.738Z,53.63
2018-05-13T07:11:35.745Z,53.63
2018-05-13T07:12:35.754Z,53.31
2018-05-13T07:13:35.758Z,54.46
2018-05-13T07:14:35.770Z,54.33
2018-05-13T07:15:35.779Z,54.03
2018-05-13T07:16:35.784Z,54.40
2018-05-13T07:17:35.789Z,54.40
2018-05-13T07:18:35.800Z,55.96
2018-05-13T07:19:35.806Z,55.37
2018-05-13T07:20:35.818Z,55.15
2018-05-13T07:21:35.820Z,55.93
2018-05-13T07:22:35.822Z,57.36
2018-05-13T07:23:35.830Z,57.53
2018-05-13T07:24:35.837Z,57.04
2018-05-13T07:25:35.844Z,57.50
2018-05-13T07:26:35.856Z,58.15
2018-05-13T07:27:35.862Z,58.93
2018-05-13T07:28:35.868Z,59.48
2018-05-13T07:29:35.873Z,60.16
2018-05-13T07:30:35.981Z,60.61
2018-05-13T07:31:35.882Z,61.46
2018-05-13T07:32:35.953Z,61.43
2018-05-13T07:33:35.898Z,62.07
2018-05-13T07:34:35.900Z,62.56
2018-05-13T07:35:35.906Z,63.53
2018-05-13T07:36:35.914Z,63.82
2018-05-13T07:37:35.918Z,64.34
2018-05-13T07:38:35.928Z,64.14
2018-05-13T07:39:35.934Z,64.34
2018-05-13T07:40:35.939Z,64.34
2018-05-13T07:41:35.943Z,63.07
2018-05-13T07:42:35.945Z,62.43
2018-05-13T07:43:35.950Z,62.72
2018-05-13T07:44:36.032Z,62.26
2018-05-13T07:45:35.975Z,61.04
2018-05-13T07:46:35.972Z,60.16
2018-05-13T07:47:35.980Z,59.41
2018-05-13T07:48:35.980Z,58.40
2018-05-13T07:49:35.983Z,57.46
2018-05-13T07:50:35.994Z,56.49
2018-05-13T07:51:36.000Z,56.12
2018-05-13T07:52:36.005Z,55.93
2018-05-13T07:53:36.012Z,56.00
2018-05-13T07:54:36.016Z,55.88
2018-05-13T07:55:36.019Z,55.85
2018-05-13T07:56:36.025Z,56.52
2018-05-13T07:57:36.032Z,56.62
2018-05-13T07:58:36.041Z,57.08
2018-05-13T07:59:36.048Z,57.98
2018-05-13T08:00:36.055Z,58.41
2018-05-13T08:01:36.061Z,58.41
2018-05-13T08:02:36.063Z,58.70
2018-05-13T08:03:36.068Z,59.64
2018-05-13T08:04:36.080Z,60.06
2018-05-13T08:05:36.086Z,60.06
2018-05-13T08:06:36.087Z,60.20
2018-05-13T08:07:36.093Z,61.36
2018-05-13T08:08:36.099Z,61.82
2018-05-13T08:09:36.105Z,62.69
2018-05-13T08:10:36.115Z,62.17
2018-05-13T08:11:36.122Z,62.63
2018-05-13T08:12:36.130Z,63.11
2018-05-13T08:13:36.132Z,64.17
2018-05-13T08:14:36.133Z,64.34
2018-05-13T08:15:36.140Z,64.79
2018-05-13T08:16:36.145Z,65.66
2018-05-13T08:17:36.149Z,65.66
2018-05-13T08:18:36.160Z,66.88
2018-05-13T08:19:36.163Z,67.33
2018-05-13T08:20:36.164Z,68.01
2018-05-13T08:21:36.169Z,68.94
2018-05-13T08:22:36.179Z,69.62
2018-05-13T08:23:36.182Z,69.90
2018-05-13T08:24:36.187Z,70.39
2018-05-13T08:25:36.244Z,70.97
2018-05-13T08:26:36.190Z,70.74
2018-05-13T08:27:36.195Z,71.70
2018-05-13T08:28:36.199Z,71.70
2018-05-13T08:29:36.205Z,72.38
2018-05-13T08:30:36.210Z,72.83
2018-05-13T08:31:36.214Z,72.54
2018-05-13T08:32:36.218Z,72.83
2018-05-13T08:33:36.221Z,72.73
2018-05-13T08:34:36.221Z,73.47
2018-05-13T08:35:36.224Z,73.66
2018-05-13T08:36:36.233Z,73.91
2018-05-13T08:37:36.235Z,74.45
2018-05-13T08:38:36.235Z,74.97
2018-05-13T08:39:36.236Z,75.42
2018-05-13T08:40:36.242Z,75.90
2018-05-13T08:41:36.244Z,76.28
2018-05-13T08:42:36.249Z,76.76
2018-05-13T08:43:36.253Z,77.25
2018-05-13T08:44:36.253Z,78.21
2018-05-13T08:45:36.257Z,79.36
2018-05-13T08:46:36.253Z,80.81
2018-05-13T08:47:36.257Z,81.48
2018-05-13T08:48:36.407Z,82.31
2018-05-13T08:49:36.259Z,81.63
2018-05-13T08:50:36.265Z,82.12
2018-05-13T08:51:36.269Z,83.28
2018-05-13T08:52:36.272Z,83.37
2018-05-13T08:53:36.268Z,83.37
2018-05-13T08:54:36.273Z,83.37
2018-05-13T08:55:36.277Z,84.05
2018-05-13T08:56:36.279Z,83.66
2018-05-13T08:57:36.279Z,83.56
2018-05-13T08:58:36.276Z,83.66
2018-05-13T08:59:36.298Z,83.66
2018-05-13T09:00:36.280Z,83.37
2018-05-13T09:01:36.280Z,83.75
2018-05-13T09:02:36.300Z,83.95
2018-05-13T09:03:36.288Z,84.53
2018-05-13T09:04:36.291Z,84.53
2018-05-13T09:05:36.289Z,85.30
2018-05-13T09:06:36.286Z,86.07
2018-05-13T09:07:36.296Z,86.40
2018-05-13T09:08:36.293Z,85.91
2018-05-13T09:09:36.294Z,85.53
2018-05-13T09:10:36.291Z,85.14
2018-05-13T09:11:36.293Z,84.90
2018-05-13T09:12:36.296Z,84.52
2018-05-13T09:13:36.299Z,84.18
2018-05-13T09:14:36.301Z,83.74
2018-05-13T09:15:36.307Z,83.89
2018-05-13T09:16:36.305Z,83.89
2018-05-13T09:17:36.310Z,84.18
2018-05-13T09:18:36.304Z,84.18
2018-05-13T09:19:36.306Z,84.76
2018-05-13T09:20:36.317Z,85.34
2018-05-13T09:21:36.306Z,85.82
2018-05-13T09:22:36.312Z,85.68
2018-05-13T09:23:36.316Z,85.53
2018-05-13T09:24:36.311Z,86.01
2018-05-13T09:25:36.312Z,84.95
2018-05-13T09:26:36.353Z,84.86
2018-05-13T09:27:36.321Z,84.99
2018-05-13T09:28:36.323Z,84.03
2018-05-13T09:29:36.338Z,84.70
2018-05-13T09:30:36.321Z,84.09
2018-05-13T09:31:36.322Z,84.56
2018-05-13T09:32:36.326Z,84.81
2018-05-13T09:33:36.324Z,85.49
2018-05-13T09:34:36.331Z,86.02
2018-05-13T09:35:36.334Z,86.60
2018-05-13T09:36:36.334Z,87.27
2018-05-13T09:37:36.336Z,87.46
2018-05-13T09:38:36.333Z,87.56
2018-05-13T09:39:36.338Z,88.33
2018-05-13T09:40:36.342Z,88.33
2018-05-13T09:41:36.341Z,87.76
2018-05-13T09:42:36.339Z,87.85
2018-05-13T09:43:36.342Z,88.14
2018-05-13T09:44:36.343Z,88.33
2018-05-13T09:45:36.344Z,88.33
2018-05-13T09:46:36.349Z,88.39
2018-05-13T09:47:36.352Z,88.67
2018-05-13T09:48:36.353Z,89.25
2018-05-13T09:49:36.357Z,89.59
2018-05-13T09:50:36.352Z,90.17
2018-05-13T09:51:36.351Z,90.45
2018-05-13T09:52:36.352Z,90.60
2018-05-13T09:53:36.352Z,91.13
2018-05-13T09:54:36.359Z,91.08
2018-05-13T09:55:36.364Z,91.75
2018-05-13T09:56:36.361Z,91.75
2018-05-13T09:57:36.365Z,91.95
2018-05-13T09:58:36.363Z,92.24
2018-05-13T09:59:36.374Z,92.72
2018-05-13T10:00:36.363Z,93.87
2018-05-13T10:01:36.369Z,93.68
2018-05-13T10:02:36.360Z,93.87
2018-05-13T10:03:36.361Z,93.29
2018-05-13T10:04:36.362Z,93.77
2018-05-13T10:05:36.364Z,92.86
2018-05-13T10:06:36.368Z,93.82
2018-05-13T10:07:36.370Z,93.82
2018-05-13T10:08:36.373Z,94.88
2018-05-13T10:09:36.454Z,94.83
2018-05-13T10:10:36.365Z,96.08
2018-05-13T10:11:36.364Z,96.51
2018-05-13T10:12:36.371Z,97.19
2018-05-13T10:13:36.370Z,97.38
2018-05-13T10:14:36.368Z,98.34
2018-05-13T10:15:36.366Z,98.72
2018-05-13T10:16:36.366Z,99.49
2018-05-13T10:17:36.365Z,99.34
2018-05-13T10:18:36.373Z,98.86
2018-05-13T10:19:36.465Z,98.77
2018-05-13T10:20:36.370Z,99.82
2018-05-13T10:21:36.371Z,99.82
2018-05-13T10:22:36.366Z,99.99
2018-05-13T10:23:36.366Z,99.99
2018-05-13T10:24:36.366Z,99.99
2018-05-13T10:25:36.366Z,99.99
2018-05-13T10:26:36.369Z,99.49
2018-05-13T10:27:36.372Z,99.99
2018-05-13T10:28:36.365Z,99.99
2018-05-13T10:29:36.364Z,99.99
2018-05-13T10:30:36.369Z,99.99
2018-05-13T10:31:36.419Z,99.99
2018-05-13T10:32:36.368Z,99.99
2018-05-13T10:33:36.367Z,99.99
2018-05-13T10:34:36.363Z,99.99
2018-05-13T10:35:36.362Z,99.99
2018-05-13T10:36:36.362Z,99.99
2018-05-13T10:37:36.360Z,99.99
2018-05-13T10:38:36.365Z,99.99
2018-05-13T10:39:36.364Z,99.99
2018-05-13T10:40:36.365Z,99.99
2018-05-13T10:41:36.362Z,99.99
2018-05-13T10:42:36.358Z,99.99
2018-05-13T10:43:36.358Z,99.99
2018-05-13T10:44:36.361Z,99.99
2018-05-13T10:45:36.361Z,99.99
2018-05-13T10:46:36.356Z,99.99
2018-05-13T10:47:36.355Z,99.99
2018-05-13T10:48:36.355Z,99.99
2018-05-13T10:49:36.358Z,99.99
2018-05-13T10:50:36.359Z,99.99
2018-05-13T10:51:36.357Z,99.99
2018-05-13T10:52:36.357Z,99.99
2018-05-13T10:53:36.357Z,99.99
2018-05-13T10:54:36.349Z,99.99
2018-05-13T10:55:36.348Z,99.99
2018-05-13T10:56:36.348Z,99.99
2018-05-13T10:57:36.349Z,99.99
2018-05-13T10:58:36.350Z,99.99
2018-05-13T10:59:36.351Z,99.99
2018-05-13T11:00:36.345Z,99.99
2018-05-13T11:01:36.343Z,99.99
2018-05-13T11:02:36.348Z,99.99
2018-05-13T11:03:36.350Z,99.99
2018-05-13T11:04:36.348Z,99.99
2018-05-13T11:05:36.345Z,99.96
2018-05-13T11:06:36.342Z,99.99
2018-05-13T11:07:36.339Z,99.99
2018-05-13T11:08:36.339Z,99.99
2018-05-13T11:09:36.339Z,99.96
2018-05-13T11:10:36.342Z,99.77
2018-05-13T11:11:36.343Z,99.99
2018-05-13T11:12:36.340Z,99.99
2018-05-13T11:13:36.339Z,99.96
2018-05-13T11:14:36.334Z,99.99
2018-05-13T11:15:36.334Z,99.54
2018-05-13T11:16:36.339Z,99.92
2018-05-13T11:17:36.336Z,99.82
2018-05-13T11:18:36.338Z,99.63
2018-05-13T11:19:36.331Z,99.25
2018-05-13T11:20:36.408Z,99.54
2018-05-13T11:21:36.330Z,98.77
2018-05-13T11:22:36.335Z,98.38
2018-05-13T11:23:36.335Z,98.00
2018-05-13T11:24:36.335Z,98.00
2018-05-13T11:25:36.333Z,97.61
2018-05-13T11:26:36.327Z,98.29
2018-05-13T11:27:36.327Z,99.05
2018-05-13T11:28:36.327Z,99.34
2018-05-13T11:29:36.324Z,99.82
2018-05-13T11:30:36.331Z,99.73
2018-05-13T11:31:36.329Z,99.05
2018-05-13T11:32:36.325Z,99.44
2018-05-13T11:33:36.323Z,99.63
2018-05-13T11:34:36.328Z,99.82
2018-05-13T11:35:36.328Z,99.99
2018-05-13T11:36:36.329Z,99.82
2018-05-13T11:37:36.326Z,99.82
2018-05-13T11:38:36.323Z,99.99
2018-05-13T11:39:36.322Z,99.99
2018-05-13T11:40:36.322Z,99.25
2018-05-13T11:41:36.321Z,99.25
2018-05-13T11:42:36.325Z,98.86
2018-05-13T11:43:36.326Z,99.25
2018-05-13T11:44:36.325Z,98.86
2018-05-13T11:45:36.323Z,99.34
2018-05-13T11:46:36.334Z,99.34
2018-05-13T11:47:36.319Z,98.67
2018-05-13T11:48:36.323Z,98.67
2018-05-13T11:49:36.321Z,98.77
2018-05-13T11:50:36.317Z,98.38
2018-05-13T11:51:36.317Z,98.96
2018-05-13T11:52:36.317Z,98.86
2018-05-13T11:53:36.316Z,98.82
2018-05-13T11:54:36.322Z,99.25
2018-05-13T11:55:36.321Z,99.77
2018-05-13T11:56:36.319Z,99.99
2018-05-13T11:57:36.318Z,99.99
2018-05-13T11:58:36.313Z,99.99
2018-05-13T11:59:36.314Z,99.99
2018-05-13T12:00:36.313Z,99.99
2018-05-13T12:01:36.312Z,99.99
2018-05-13T12:02:36.316Z,99.99
2018-05-13T12:03:36.317Z,99.99
2018-05-13T12:04:36.311Z,99.99
2018-05-13T12:05:36.310Z,99.99
2018-05-13T12:06:36.318Z,99.99
2018-05-13T12:07:36.314Z,99.96
2018-05-13T12:08:36.313Z,99.99
2018-05-13T12:09:36.312Z,99.99
2018-05-13T12:10:36.307Z,99.99
2018-05-13T12:11:36.357Z,99.99
2018-05-13T12:12:36.307Z,99.77
2018-05-13T12:13:36.305Z,99.77
2018-05-13T12:14:36.309Z,99.99
2018-05-13T12:15:36.311Z,99.99
2018-05-13T12:16:36.308Z,99.58
2018-05-13T12:17:36.308Z,99.99
2018-05-13T12:18:36.302Z,99.99
2018-05-13T12:19:36.302Z,99.99
2018-05-13T12:20:36.308Z,99.96
2018-05-13T12:21:36.305Z,99.99
2018-05-13T12:22:36.301Z,99.99
2018-05-13T12:23:36.300Z,99.99
2018-05-13T12:24:36.303Z,99.99
2018-05-13T12:25:36.296Z,99.99
2018-05-13T12:26:36.306Z,99.99
2018-05-13T12:27:36.300Z,99.99
2018-05-13T12:28:36.298Z,99.99
2018-05-13T12:29:36.297Z,99.99
2018-05-13T12:30:36.293Z,99.99
2018-05-13T12:31:36.293Z,99.99
2018-05-13T12:32:36.292Z,99.99
2018-05-13T12:33:36.291Z,99.99
2018-05-13T12:34:36.296Z,99.99
2018-05-13T12:35:36.295Z,99.99
2018-05-13T12:36:36.290Z,99.99
2018-05-13T12:37:36.289Z,99.99
2018-05-13T12:38:36.296Z,99.99
2018-05-13T12:39:36.293Z,99.99
2018-05-13T12:40:36.291Z,99.99
2018-05-13T12:41:36.289Z,99.99
2018-05-13T12:42:36.284Z,99.99
2018-05-13T12:43:36.285Z,99.63
2018-05-13T12:44:36.285Z,99.34
2018-05-13T12:45:36.284Z,99.73
2018-05-13T12:46:36.287Z,99.99
2018-05-13T12:47:36.286Z,99.82
2018-05-13T12:48:36.288Z,99.82
2018-05-13T12:49:36.286Z,99.99
2018-05-13T12:50:36.281Z,98.96
2018-05-13T12:51:36.280Z,99.15
2018-05-13T12:52:36.285Z,98.96